Time;durP1;ratioP1;P1;durP2;ratioP2;P2;SDS_P1;SDS_P2;PMS_P1;PMS_P2;Temp;Humidity;BMP_temperature;BMP_pressure;BME280_temperature;BME280_humidity;BME280_pressure;Samples;Min_cycle;Max_cycle;Signal;HPM_P1;HPM_P2
2022/12/27 00:00:40;;;;;;;31.80;29.23;;;;;;;3.48;100.00;101222.78;5013068;28;20564;-52
2022/12/27 00:03:07;;;;;;;31.50;29.20;;;;;;;3.48;100.00;101214.88;5012633;28;20503;-54
2022/12/27 00:05:35;;;;;;;31.17;28.37;;;;;;;3.44;100.00;101218.72;5012462;28;20437;-51
2022/12/27 00:08:03;;;;;;;32.07;29.37;;;;;;;3.41;100.00;101211.09;5012581;28;20453;-52
2022/12/27 00:10:30;;;;;;;32.20;29.57;;;;;;;3.39;100.00;101218.34;5012167;28;20555;-53
2022/12/27 00:12:58;;;;;;;31.87;29.37;;;;;;;3.37;100.00;101234.31;5012513;28;20437;-51
2022/12/27 00:15:25;;;;;;;33.93;29.50;;;;;;;3.34;100.00;101251.19;5012300;28;20441;-50
2022/12/27 00:17:54;;;;;;;30.80;28.60;;;;;;;3.36;100.00;101253.72;5012312;28;20461;-50
2022/12/27 00:20:22;;;;;;;30.23;28.10;;;;;;;3.42;100.00;101266.34;5011849;28;20554;-50
2022/12/27 00:22:50;;;;;;;29.87;27.90;;;;;;;3.48;100.00;101268.44;5012519;28;20776;-52
2022/12/27 00:25:17;;;;;;;30.53;28.43;;;;;;;3.52;100.00;101269.84;5012318;28;20816;-52
2022/12/27 00:27:45;;;;;;;32.97;30.80;;;;;;;3.58;100.00;101249.97;5012318;28;20460;-53
2022/12/27 00:30:13;;;;;;;30.30;28.27;;;;;;;3.59;100.00;101249.00;5011805;28;20469;-52
2022/12/27 00:32:40;;;;;;;29.43;27.80;;;;;;;3.57;100.00;101251.78;5012586;28;20830;-51
2022/12/27 00:35:10;;;;;;;29.63;28.23;;;;;;;3.54;100.00;101259.13;5012324;28;20823;-48
2022/12/27 00:37:37;;;;;;;29.80;28.00;;;;;;;3.44;100.00;101258.28;5008964;28;20453;-53
2022/12/27 00:40:06;;;;;;;29.10;27.70;;;;;;;3.37;100.00;101252.75;5003703;28;20468;-51
2022/12/27 00:42:33;;;;;;;30.13;28.00;;;;;;;3.34;100.00;101255.66;5012027;28;20956;-50
2022/12/27 00:45:01;;;;;;;27.97;26.60;;;;;;;3.29;100.00;101249.94;5011928;28;20436;-49
2022/12/27 00:47:28;;;;;;;28.10;26.80;;;;;;;3.25;100.00;101257.31;5012013;28;20556;-50
2022/12/27 00:49:56;;;;;;;28.23;26.60;;;;;;;3.24;100.00;101268.00;5011789;28;20472;-53
2022/12/27 00:52:25;;;;;;;29.27;27.17;;;;;;;3.17;100.00;101251.03;5012032;28;20436;-52
2022/12/27 00:54:52;;;;;;;29.03;27.10;;;;;;;3.13;100.00;101253.16;5011904;28;20437;-51
2022/12/27 00:57:20;;;;;;;29.07;26.90;;;;;;;3.10;100.00;101261.31;5011817;28;20465;-51
2022/12/27 00:59:48;;;;;;;29.90;27.63;;;;;;;3.10;100.00;101253.41;5011784;28;20500;-53
2022/12/27 01:02:15;;;;;;;29.63;27.57;;;;;;;3.12;100.00;101262.00;5012010;28;20492;-53
2022/12/27 01:04:44;;;;;;;29.20;27.20;;;;;;;3.15;100.00;101242.44;5011973;28;20443;-52
2022/12/27 01:07:11;;;;;;;29.33;27.50;;;;;;;3.19;100.00;101254.41;5011910;28;20824;-51
2022/12/27 01:09:40;;;;;;;28.97;27.47;;;;;;;3.23;100.00;101253.97;5011429;28;20469;-49
2022/12/27 01:12:08;;;;;;;30.93;29.00;;;;;;;3.27;100.00;101246.63;5011849;28;20918;-53
2022/12/27 01:14:35;;;;;;;31.20;28.60;;;;;;;3.31;100.00;101259.41;5012036;28;20776;-50
2022/12/27 01:17:03;;;;;;;28.77;27.30;;;;;;;3.34;100.00;101269.66;5011972;28;20607;-52
2022/12/27 01:19:31;;;;;;;29.77;28.20;;;;;;;3.39;100.00;101268.41;5011460;28;20472;-53
2022/12/27 01:21:58;;;;;;;29.30;27.60;;;;;;;3.45;100.00;101273.97;5011934;28;20477;-53
2022/12/27 01:24:26;;;;;;;28.83;27.10;;;;;;;3.49;100.00;101271.91;5011437;28;20437;-52
2022/12/27 01:26:55;;;;;;;29.80;27.70;;;;;;;3.52;100.00;101277.75;5011723;28;20457;-47
2022/12/27 01:29:22;;;;;;;28.90;26.77;;;;;;;3.54;100.00;101275.78;5011400;28;20464;-54
2022/12/27 01:31:50;;;;;;;29.40;27.20;;;;;;;3.57;100.00;101279.94;5011959;28;20572;-49
2022/12/27 01:34:18;;;;;;;29.73;27.87;;;;;;;3.63;100.00;101282.03;5013186;28;21015;-48
2022/12/27 01:36:46;;;;;;;28.83;27.20;;;;;;;3.62;100.00;101289.09;5012144;28;20446;-48
2022/12/27 01:39:14;;;;;;;29.13;27.30;;;;;;;3.64;100.00;101304.81;5006937;28;20461;-50
2022/12/27 01:44:55;;;;;;;29.80;27.97;;;;;;;3.70;100.00;101317.44;5015026;28;20464;-49
2022/12/27 01:47:40;;;;;;;29.63;27.90;;;;;;;3.75;100.00;101318.69;5014995;28;20461;-54
2022/12/27 01:50:14;;;;;;;30.57;28.63;;;;;;;3.77;100.00;101319.38;5014736;28;21005;-52
2022/12/27 01:52:48;;;;;;;31.53;28.57;;;;;;;3.80;100.00;101323.53;5015390;28;20428;-53
2022/12/27 01:55:22;;;;;;;30.53;28.93;;;;;;;3.77;100.00;101318.53;5015005;28;20436;-51
2022/12/27 01:57:54;;;;;;;32.90;30.33;;;;;;;3.81;100.00;101323.41;5014940;28;20449;-51
2022/12/27 02:00:23;;;;;;;29.70;28.10;;;;;;;3.84;100.00;101317.88;5014557;28;21072;-53
2022/12/27 02:02:51;;;;;;;30.47;28.10;;;;;;;3.84;100.00;101320.50;5015125;28;20481;-49
2022/12/27 02:05:22;;;;;;;28.13;26.67;;;;;;;3.83;100.00;101320.63;5014860;28;20437;-53
2022/12/27 02:08:04;;;;;;;30.03;27.77;;;;;;;3.85;100.00;101321.34;5015006;28;20460;-54
2022/12/27 02:10:33;;;;;;;29.53;27.60;;;;;;;3.86;100.00;101328.25;5014357;28;21016;-49
2022/12/27 02:13:02;;;;;;;29.30;27.60;;;;;;;3.88;100.00;101342.16;5015062;28;20429;-51
2022/12/27 02:15:32;;;;;;;29.90;27.90;;;;;;;3.87;100.00;101341.34;5014637;28;20444;-52
2022/12/27 02:18:00;;;;;;;29.30;27.63;;;;;;;3.86;100.00;101336.19;5014756;28;20522;-49
2022/12/27 02:20:34;;;;;;;29.40;27.13;;;;;;;3.89;100.00;101328.81;5014255;28;20472;-51
2022/12/27 02:26:36;;;;;;;29.13;27.50;;;;;;;3.83;100.00;101307.44;5014382;28;20432;-54
2022/12/27 02:29:35;;;;;;;30.00;28.30;;;;;;;3.78;100.00;101315.78;5014049;28;20523;-50
2022/12/27 02:32:08;;;;;;;30.00;28.27;;;;;;;3.70;100.00;101314.81;5014630;28;20440;-54
2022/12/27 02:34:41;;;;;;;28.73;27.30;;;;;;;3.65;100.00;101307.28;5014247;28;20448;-48
2022/12/27 02:37:12;;;;;;;29.70;28.03;;;;;;;3.59;100.00;101305.22;5010963;28;20448;-49
2022/12/27 02:39:43;;;;;;;28.97;27.53;;;;;;;3.58;100.00;101303.56;5005599;28;20462;-50
2022/12/27 02:54:09;;;;;;;29.60;27.90;;;;;;;3.34;100.00;101280.19;5013858;28;20483;-50
2022/12/27 03:03:19;;;;;;;28.50;27.00;;;;;;;3.27;100.00;101280.91;5013647;28;20473;-48
2022/12/27 03:06:38;;;;;;;27.53;26.20;;;;;;;3.34;100.00;101287.31;5013597;28;20476;-54
2022/12/27 03:08:43;;;;;;;28.43;26.83;;;;;;;3.41;100.00;101293.66;5013387;28;20457;-53
2022/12/27 03:17:01;;;;;;;30.70;28.90;;;;;;;3.62;100.00;101304.94;5013256;28;20458;-50
2022/12/27 03:25:28;;;;;;;29.77;27.93;;;;;;;3.70;100.00;101342.00;4975271;28;20932;-50
2022/12/27 03:33:37;;;;;;;30.60;28.23;;;;;;;3.71;100.00;101327.84;5013146;28;20997;-49
2022/12/27 03:39:09;;;;;;;28.80;27.50;;;;;;;3.63;100.00;101321.59;5001621;28;20437;-50
2022/12/27 03:44:27;;;;;;;29.27;27.33;;;;;;;3.57;100.00;101315.06;5013100;28;20448;-49
2022/12/27 03:46:56;;;;;;;28.10;26.70;;;;;;;3.59;100.00;101313.13;5013032;28;20870;-54
2022/12/27 03:49:31;;;;;;;28.30;27.00;;;;;;;3.56;100.00;101313.41;5012749;28;20851;-50
2022/12/27 03:52:09;;;;;;;29.00;26.67;;;;;;;3.53;100.00;101323.38;5012983;28;20439;-48
2022/12/27 03:54:39;;;;;;;28.00;26.67;;;;;;;3.51;100.00;101310.34;5012735;28;20445;-49
2022/12/27 03:57:11;;;;;;;29.93;27.97;;;;;;;3.48;100.00;101309.78;5012625;28;20870;-50
2022/12/27 03:59:39;;;;;;;29.83;28.10;;;;;;;3.44;100.00;101314.50;5012356;28;21001;-48
2022/12/27 04:02:07;;;;;;;31.27;29.03;;;;;;;3.40;100.00;101326.31;5012829;28;20799;-51
2022/12/27 04:04:36;;;;;;;28.40;27.10;;;;;;;3.40;100.00;101325.47;5012689;28;20487;-50
2022/12/27 04:07:05;;;;;;;29.93;28.20;;;;;;;3.42;100.00;101334.91;5012796;28;20468;-53
2022/12/27 04:34:41;;;;;;;28.97;27.27;;;;;;;3.49;100.00;101372.94;5012107;28;20960;-51
2022/12/27 04:37:11;;;;;;;29.20;27.50;;;;;;;3.48;100.00;101368.63;5009073;28;20449;-52
2022/12/27 04:39:40;;;;;;;28.43;26.83;;;;;;;3.48;100.00;101379.19;5003696;28;20878;-51
2022/12/27 04:56:04;;;;;;;28.13;26.37;;;;;;;3.39;100.00;101379.97;5011994;28;20437;-47
2022/12/27 04:58:32;;;;;;;27.97;26.57;;;;;;;3.36;100.00;101374.97;5012048;28;20449;-51
2022/12/27 05:03:51;;;;;;;30.33;27.83;;;;;;;3.26;100.00;101380.22;5011986;28;20545;-51
2022/12/27 05:06:19;;;;;;;30.03;28.00;;;;;;;3.20;100.00;101375.47;5012032;28;20440;-52
2022/12/27 05:14:19;;;;;;;29.83;28.33;;;;;;;3.02;100.00;101387.63;5041018;22;20483;-48
2022/12/27 05:16:47;;;;;;;28.30;26.57;;;;;;;2.95;100.00;101402.31;5014553;28;20433;-45
2022/12/27 05:19:15;;;;;;;29.03;27.30;;;;;;;2.91;100.00;101407.94;5009142;28;20878;-45
2022/12/27 05:25:33;;;;;;;29.93;27.77;;;;;;;2.88;100.00;101411.69;4995285;28;20441;-46
2022/12/27 05:27:20;;;;;;;27.27;25.70;;;;;;;2.90;100.00;101415.00;4994320;28;20874;-46
2022/12/27 05:29:48;;;;;;;29.63;27.53;;;;;;;2.92;100.00;101414.91;4994029;28;20469;-50
2022/12/27 05:32:15;;;;;;;29.40;27.03;;;;;;;2.96;100.00;101426.81;4994905;28;20446;-48
2022/12/27 05:34:43;;;;;;;27.60;26.20;;;;;;;2.99;100.00;101416.03;4995040;28;20815;-46
2022/12/27 05:37:11;;;;;;;27.97;26.20;;;;;;;3.02;100.00;101419.22;4991437;28;20430;-45
2022/12/27 05:39:38;;;;;;;28.43;26.37;;;;;;;3.03;100.00;101415.63;5009497;28;20462;-46
2022/12/27 05:42:06;;;;;;;27.90;26.30;;;;;;;3.08;100.00;101433.69;5034149;28;20492;-45
2022/12/27 05:44:35;;;;;;;28.30;26.60;;;;;;;3.11;100.00;101417.59;5033853;28;20510;-48
2022/12/27 05:47:02;;;;;;;28.37;26.63;;;;;;;3.13;100.00;101428.88;5034405;28;20444;-50
2022/12/27 05:49:30;;;;;;;28.53;26.57;;;;;;;3.14;100.00;101438.41;5033327;28;20554;-46
2022/12/27 05:51:58;;;;;;;27.73;26.23;;;;;;;3.10;100.00;101439.66;5034185;28;20493;-50
2022/12/27 05:54:26;;;;;;;30.57;28.97;;;;;;;3.08;100.00;101437.16;5033830;28;20459;-45
2022/12/27 05:56:54;;;;;;;28.23;26.73;;;;;;;3.02;100.00;101447.38;5033246;28;20806;-50
2022/12/27 05:59:21;;;;;;;28.83;27.33;;;;;;;2.96;100.00;101451.38;5032386;28;20472;-48
2022/12/27 06:01:51;;;;;;;30.03;28.07;;;;;;;2.92;100.00;101465.78;5033499;28;20945;-50
2022/12/27 06:04:19;;;;;;;29.33;27.93;;;;;;;2.87;100.00;101469.78;5033231;28;20992;-45
2022/12/27 06:06:46;;;;;;;28.03;26.63;;;;;;;2.79;100.00;101480.94;5033579;28;20431;-47
2022/12/27 06:09:14;;;;;;;28.60;27.10;;;;;;;2.78;100.00;101489.78;5032830;28;20462;-46
2022/12/27 06:11:42;;;;;;;28.40;27.00;;;;;;;2.75;100.00;101490.06;5032308;28;20431;-48
2022/12/27 06:14:09;;;;;;;28.07;26.33;;;;;;;2.73;100.00;101482.28;5032880;28;20880;-50
2022/12/27 06:16:37;;;;;;;28.00;26.50;;;;;;;2.70;100.00;101490.44;5032715;28;20440;-53
2022/12/27 06:19:06;;;;;;;28.53;27.33;;;;;;;2.68;100.00;101496.81;5033179;28;20822;-48
2022/12/27 06:21:34;;;;;;;28.00;26.50;;;;;;;2.65;100.00;101505.81;5033446;28;20443;-46
2022/12/27 06:24:02;;;;;;;28.20;26.70;;;;;;;2.64;100.00;101500.66;5033127;28;20483;-45
2022/12/27 06:26:30;;;;;;;27.10;25.80;;;;;;;2.58;100.00;101509.06;5033349;28;20480;-45
2022/12/27 06:28:58;;;;;;;27.90;26.37;;;;;;;2.58;100.00;101515.16;5032866;28;20436;-48
2022/12/27 06:31:28;;;;;;;28.67;26.87;;;;;;;2.59;100.00;101521.28;5033018;28;20420;-48
2022/12/27 06:33:57;;;;;;;28.37;26.80;;;;;;;2.61;100.00;101525.44;5032606;28;20432;-48
2022/12/27 06:36:28;;;;;;;28.73;27.00;;;;;;;2.66;100.00;101538.22;5031674;28;20483;-48
2022/12/27 06:38:56;;;;;;;29.23;27.03;;;;;;;2.68;100.00;101525.78;5022956;28;20452;-47
2022/12/27 06:41:23;;;;;;;28.13;26.60;;;;;;;2.71;100.00;101541.31;5033663;28;20443;-50
2022/12/27 06:43:54;;;;;;;28.37;26.97;;;;;;;2.73;100.00;101547.28;5032751;28;20476;-50
2022/12/27 06:46:23;;;;;;;27.87;26.20;;;;;;;2.75;100.00;101561.16;5032717;28;20440;-53
2022/12/27 06:48:51;;;;;;;29.93;27.90;;;;;;;2.78;100.00;101555.66;5032416;28;20440;-49
2022/12/27 06:51:20;;;;;;;28.33;26.67;;;;;;;2.84;100.00;101562.22;5032218;28;20809;-51
2022/12/27 06:53:50;;;;;;;28.27;26.50;;;;;;;2.86;100.00;101547.13;5032506;28;20424;-47
2022/12/27 06:56:19;;;;;;;28.03;26.57;;;;;;;2.87;100.00;101544.34;5032318;28;20932;-48
2022/12/27 06:58:48;;;;;;;29.00;27.37;;;;;;;2.85;100.00;101535.75;5031371;28;20797;-48
2022/12/27 07:01:18;;;;;;;29.50;27.40;;;;;;;2.79;100.00;101539.72;5032125;28;20478;-48
2022/12/27 07:03:48;;;;;;;29.20;27.50;;;;;;;2.71;100.00;101531.63;5032008;28;20448;-49
2022/12/27 07:06:16;;;;;;;29.80;27.90;;;;;;;2.64;100.00;101546.25;5032361;28;20463;-46
2022/12/27 07:08:44;;;;;;;29.90;27.60;;;;;;;2.56;100.00;101553.13;5031244;28;20944;-48
2022/12/27 07:11:14;;;;;;;29.93;28.03;;;;;;;2.48;100.00;101551.09;5017978;28;20453;-45
2022/12/27 07:13:44;;;;;;;29.43;27.77;;;;;;;2.42;100.00;101556.84;5010098;28;21025;-46
2022/12/27 07:16:14;;;;;;;28.80;27.20;;;;;;;2.37;100.00;101553.78;5020783;28;20498;-50
2022/12/27 07:18:42;;;;;;;29.43;27.33;;;;;;;2.28;100.00;101567.66;5028385;28;20440;-44
2022/12/27 07:21:12;;;;;;;29.23;27.60;;;;;;;2.21;100.00;101575.22;5009966;28;20842;-50
2022/12/27 07:23:40;;;;;;;31.63;28.43;;;;;;;2.15;100.00;101582.78;5010294;28;20495;-50
2022/12/27 07:26:09;;;;;;;28.93;27.53;;;;;;;2.09;100.00;101589.34;5010132;28;20457;-45
2022/12/27 07:28:39;;;;;;;28.97;26.80;;;;;;;2.05;100.00;101589.72;5010986;28;20463;-50
2022/12/27 07:31:08;;;;;;;27.73;26.47;;;;;;;1.97;100.00;101587.69;5009065;28;21037;-49
2022/12/27 07:33:36;;;;;;;29.17;27.57;;;;;;;1.94;100.00;101582.66;5015752;28;20437;-47
2022/12/27 07:36:07;;;;;;;29.07;26.90;;;;;;;1.91;100.00;101588.16;5011746;28;20449;-48
2022/12/27 07:38:35;;;;;;;29.33;27.63;;;;;;;1.87;100.00;101601.69;5020045;28;20443;-47
2022/12/27 07:41:03;;;;;;;29.10;27.40;;;;;;;1.84;100.00;101604.56;5030392;28;20463;-46
2022/12/27 07:43:32;;;;;;;29.30;27.70;;;;;;;1.81;100.00;101607.41;5031692;28;20449;-44
2022/12/27 07:46:05;;;;;;;31.67;29.40;;;;;;;1.76;100.00;101620.94;5031183;28;20480;-45
2022/12/27 07:48:33;;;;;;;29.33;27.60;;;;;;;1.75;100.00;101619.25;5032005;28;20436;-45
2022/12/27 07:51:00;;;;;;;28.70;26.80;;;;;;;1.73;100.00;101629.06;5031356;28;20464;-48
2022/12/27 07:53:28;;;;;;;30.13;28.30;;;;;;;1.73;100.00;101628.22;5031471;28;20443;-50
2022/12/27 07:55:56;;;;;;;29.37;27.80;;;;;;;1.74;100.00;101635.13;5031119;28;20487;-46
2022/12/27 07:58:24;;;;;;;29.90;27.90;;;;;;;1.76;100.00;101641.13;5030971;28;20503;-48
2022/12/27 08:00:52;;;;;;;28.67;27.13;;;;;;;1.89;100.00;101658.47;5030963;28;20507;-49
2022/12/27 08:03:21;;;;;;;31.77;29.40;;;;;;;2.01;100.00;101683.81;5031290;28;20436;-45
2022/12/27 08:05:51;;;;;;;30.50;27.97;;;;;;;2.08;100.00;101682.41;5030636;28;20892;-45
2022/12/27 08:08:22;;;;;;;30.37;28.10;;;;;;;2.13;100.00;101656.56;5031209;28;20433;-46
2022/12/27 08:10:50;;;;;;;29.37;27.70;;;;;;;2.22;100.00;101663.75;5030484;28;20799;-45
2022/12/27 08:13:18;;;;;;;30.83;28.70;;;;;;;2.30;100.00;101672.84;5030879;28;20424;-48
2022/12/27 08:15:45;;;;;;;29.70;28.23;;;;;;;2.36;100.00;101662.63;5030973;28;20826;-46
2022/12/27 08:18:13;;;;;;;28.23;26.80;;;;;;;2.43;100.00;101668.25;5030791;28;20439;-48
2022/12/27 08:20:42;;;;;;;28.97;27.20;;;;;;;2.48;100.00;101677.47;5030035;28;20496;-46
2022/12/27 08:23:09;;;;;;;29.87;28.13;;;;;;;2.55;100.00;101673.41;5030733;28;20432;-48
2022/12/27 08:25:37;;;;;;;30.43;28.53;;;;;;;2.61;100.00;101666.78;5031128;28;21104;-51
2022/12/27 08:28:16;;;;;;;32.03;30.00;;;;;;;2.65;100.00;101666.44;5030405;28;20514;-47
2022/12/27 08:30:46;;;;;;;30.57;28.63;;;;;;;2.70;100.00;101671.31;5030117;28;21049;-44
2022/12/27 08:33:15;;;;;;;29.90;28.03;;;;;;;2.72;100.00;101672.03;5030647;28;20440;-45
2022/12/27 08:35:45;;;;;;;29.00;27.40;;;;;;;2.70;100.00;101676.59;5028823;28;20466;-47
2022/12/27 08:38:21;;;;;;;30.37;28.30;;;;;;;2.70;100.00;101682.69;5022819;28;20437;-48
2022/12/27 08:40:49;;;;;;;29.77;27.90;;;;;;;2.69;100.00;101688.91;5027944;28;20460;-48
2022/12/27 08:43:17;;;;;;;30.23;28.47;;;;;;;2.72;100.00;101696.56;5017858;28;21330;-48
2022/12/27 08:45:45;;;;;;;28.47;26.73;;;;;;;2.74;100.00;101699.94;5005101;28;20575;-46
2022/12/27 08:48:13;;;;;;;28.47;26.50;;;;;;;2.81;100.00;101712.63;5013369;28;20526;-45
2022/12/27 08:50:41;;;;;;;28.97;27.23;;;;;;;2.83;100.00;101708.91;5026244;28;20472;-46
2022/12/27 08:53:11;;;;;;;28.77;27.17;;;;;;;2.88;100.00;101711.16;5023199;28;20553;-47
2022/12/27 08:55:38;;;;;;;28.93;27.30;;;;;;;2.91;100.00;101716.19;5012519;28;20464;-46
2022/12/27 08:58:06;;;;;;;28.23;27.03;;;;;;;2.96;100.00;101724.53;5027687;28;20424;-46
2022/12/27 09:00:42;;;;;;;27.60;26.30;;;;;;;3.01;100.00;101725.03;5014396;28;21009;-47
2022/12/27 09:03:10;;;;;;;28.20;27.00;;;;;;;3.08;100.00;101732.28;5013332;28;20437;-49
2022/12/27 09:05:38;;;;;;;28.10;26.60;;;;;;;3.13;100.00;101738.06;5018171;28;20485;-49
2022/12/27 09:08:09;;;;;;;28.63;27.23;;;;;;;3.18;100.00;101740.31;5025486;28;20486;-48
2022/12/27 09:10:38;;;;;;;28.83;27.43;;;;;;;3.20;100.00;101741.00;5015354;28;21326;-47
2022/12/27 09:13:05;;;;;;;29.13;27.83;;;;;;;3.26;100.00;101741.34;5014881;28;20440;-49
2022/12/27 09:15:34;;;;;;;28.33;26.93;;;;;;;3.32;100.00;101746.13;5011593;28;20476;-47
2022/12/27 09:18:02;;;;;;;27.53;26.37;;;;;;;3.38;100.00;101742.13;5010620;28;20432;-47
2022/12/27 09:20:31;;;;;;;29.10;27.27;;;;;;;3.39;100.00;101753.53;5020904;28;20475;-50
2022/12/27 09:22:59;;;;;;;28.30;27.00;;;;;;;3.38;100.00;101752.69;5019049;28;20441;-45
2022/12/27 09:25:26;;;;;;;27.80;26.60;;;;;;;3.40;100.00;101761.31;5003659;28;20484;-46
2022/12/27 09:27:55;;;;;;;30.50;28.50;;;;;;;3.45;100.00;101758.28;5025602;28;20436;-46
2022/12/27 09:30:23;;;;;;;30.10;28.20;;;;;;;3.49;100.00;101770.28;5028430;28;20468;-46
2022/12/27 09:32:51;;;;;;;29.80;28.20;;;;;;;3.55;100.00;101778.53;5013788;28;20440;-45
2022/12/27 09:35:18;;;;;;;28.67;27.30;;;;;;;3.54;100.00;101768.94;5008219;28;20453;-47
2022/12/27 09:37:46;;;;;;;28.37;26.97;;;;;;;3.60;100.00;101771.06;5018311;28;20754;-47
2022/12/27 09:40:16;;;;;;;29.90;28.00;;;;;;;3.66;100.00;101767.91;5010793;28;20823;-45
2022/12/27 09:42:47;;;;;;;29.90;28.27;;;;;;;3.67;100.00;101772.25;5029289;28;20435;-48
2022/12/27 09:45:41;;;;;;;29.03;27.30;;;;;;;3.74;100.00;101777.81;5029527;28;20558;-49
2022/12/27 09:48:14;;;;;;;30.40;28.70;;;;;;;3.76;100.00;101784.63;5029081;28;20921;-46
2022/12/27 09:50:47;;;;;;;29.70;27.30;;;;;;;3.78;100.00;101795.09;5028651;28;20759;-49
2022/12/27 09:53:18;;;;;;;27.60;26.20;;;;;;;3.83;100.00;101795.53;5013625;28;20458;-50
2022/12/27 09:55:50;;;;;;;29.00;26.73;;;;;;;3.85;100.00;101812.09;5018665;28;20449;-46
2022/12/27 09:58:38;;;;;;;29.70;27.70;;;;;;;3.91;100.00;101817.66;5001842;28;20432;-49
2022/12/27 10:01:19;;;;;;;28.47;26.87;;;;;;;3.89;100.00;101806.41;5015191;28;20930;-47
2022/12/27 10:03:48;;;;;;;29.60;27.80;;;;;;;3.91;100.00;101812.41;5014044;28;20424;-45
2022/12/27 10:06:40;;;;;;;29.43;27.20;;;;;;;3.98;100.00;101815.38;5031614;28;20837;-47
2022/12/27 10:09:23;;;;;;;29.93;27.90;;;;;;;4.05;100.00;101815.69;5022642;28;20591;-45
2022/12/27 10:12:01;;;;;;;29.00;27.10;;;;;;;4.08;100.00;101810.16;5004736;28;20632;-45
2022/12/27 10:14:43;;;;;;;30.20;27.83;;;;;;;4.08;100.00;101807.53;5009959;28;21004;-45
2022/12/27 10:17:25;;;;;;;28.40;26.67;;;;;;;4.07;100.00;101808.47;4993676;28;20528;-48
2022/12/27 10:20:02;;;;;;;27.90;26.50;;;;;;;4.16;100.00;101807.72;5001897;28;20465;-49
2022/12/27 10:22:34;;;;;;;28.90;27.30;;;;;;;4.24;100.00;101815.84;5004414;28;20990;-47
2022/12/27 10:25:10;;;;;;;28.47;27.00;;;;;;;4.32;100.00;101808.09;5006214;28;21034;-49
2022/12/27 10:27:39;;;;;;;29.53;27.70;;;;;;;4.35;100.00;101808.69;5001720;28;20477;-46
2022/12/27 10:30:14;;;;;;;30.10;27.97;;;;;;;4.40;100.00;101811.75;4992903;28;20536;-48
2022/12/27 10:32:44;;;;;;;29.10;27.80;;;;;;;4.48;100.00;101808.44;5003239;28;20439;-46
2022/12/27 10:35:15;;;;;;;30.13;28.23;;;;;;;4.60;100.00;101806.59;5003914;28;20851;-45
2022/12/27 10:37:43;;;;;;;29.67;27.87;;;;;;;4.65;100.00;101812.28;4992250;28;20428;-47
2022/12/27 10:40:16;;;;;;;30.03;28.40;;;;;;;4.70;100.00;101799.50;4997190;28;20457;-48
2022/12/27 10:42:48;;;;;;;30.23;28.80;;;;;;;4.73;100.00;101808.00;5012339;28;21087;-45
2022/12/27 10:45:32;;;;;;;30.77;28.87;;;;;;;4.70;100.00;101805.63;5011856;28;20465;-46
2022/12/27 10:48:15;;;;;;;31.27;29.20;;;;;;;4.71;100.00;101815.25;5012154;28;20942;-46
2022/12/27 10:50:50;;;;;;;31.97;29.87;;;;;;;4.71;100.00;101817.91;5011254;28;20471;-49
2022/12/27 10:53:54;;;;;;;30.73;29.03;;;;;;;4.74;100.00;101830.00;5010700;28;20432;-44
2022/12/27 10:56:26;;;;;;;31.70;29.33;;;;;;;4.82;100.00;101833.66;4995158;28;20520;-51
2022/12/27 10:58:55;;;;;;;30.20;28.40;;;;;;;4.87;100.00;101815.56;5008320;28;20436;-46
2022/12/27 11:01:27;;;;;;;30.37;28.67;;;;;;;4.98;100.00;101827.88;5010347;28;20414;-46
2022/12/27 11:04:10;;;;;;;31.00;29.23;;;;;;;5.04;100.00;101835.28;5011186;28;20418;-48
2022/12/27 11:06:50;;;;;;;31.33;29.73;;;;;;;5.07;100.00;101834.16;5019947;28;20498;-47
2022/12/27 11:09:30;;;;;;;30.37;28.87;;;;;;;5.13;100.00;101842.41;5023210;28;20465;-45
2022/12/27 11:12:19;;;;;;;30.77;28.63;;;;;;;5.17;100.00;101848.25;5001654;28;20432;-46
2022/12/27 11:14:55;;;;;;;29.40;28.20;;;;;;;5.19;100.00;101835.72;4997709;28;20461;-50
2022/12/27 11:17:25;;;;;;;31.30;29.80;;;;;;;5.21;100.00;101836.41;5010440;28;20425;-47
2022/12/27 11:19:56;;;;;;;30.97;29.47;;;;;;;5.14;100.00;101841.41;5010155;28;20465;-48
2022/12/27 11:22:24;;;;;;;31.30;29.60;;;;;;;5.08;100.00;101846.41;5010223;28;20432;-47
2022/12/27 11:24:53;;;;;;;30.13;28.37;;;;;;;5.03;100.00;101838.88;5009730;28;20464;-49
2022/12/27 11:27:24;;;;;;;28.77;27.30;;;;;;;4.93;100.00;101851.22;4996141;28;20481;-44
2022/12/27 11:29:53;;;;;;;29.40;27.83;;;;;;;4.82;100.00;101862.72;5007587;28;20469;-47
2022/12/27 11:32:23;;;;;;;29.90;28.53;;;;;;;4.70;100.00;101858.50;5025700;28;20440;-45
2022/12/27 11:34:55;;;;;;;30.13;28.50;;;;;;;4.70;100.00;101844.44;5013582;28;20457;-47
2022/12/27 11:37:26;;;;;;;29.23;27.80;;;;;;;4.88;100.00;101838.41;5020779;28;20427;-48
2022/12/27 11:40:10;;;;;;;28.43;27.10;;;;;;;5.12;100.00;101848.63;5019462;28;20555;-46
2022/12/27 11:42:42;;;;;;;29.73;28.00;;;;;;;5.37;100.00;101856.09;5013965;28;20445;-47
2022/12/27 11:45:14;;;;;;;29.47;28.07;;;;;;;5.63;100.00;101855.56;5009041;28;20453;-46
2022/12/27 11:47:47;;;;;;;28.90;27.40;;;;;;;5.65;100.00;101865.03;5025884;28;20961;-45
2022/12/27 11:50:33;;;;;;;29.20;27.80;;;;;;;5.54;100.00;101858.09;5018866;28;20469;-46
2022/12/27 11:53:14;;;;;;;29.10;27.70;;;;;;;5.49;100.00;101859.47;5015488;28;20420;-46
2022/12/27 11:55:58;;;;;;;29.30;28.10;;;;;;;5.30;100.00;101870.84;5021953;28;20503;-46
2022/12/27 11:58:47;;;;;;;29.80;28.37;;;;;;;5.12;100.00;101877.72;4997265;28;20433;-49
2022/12/27 12:01:33;;;;;;;30.13;28.73;;;;;;;4.99;100.00;101879.75;5016454;28;20448;-46
2022/12/27 12:04:24;;;;;;;29.47;27.73;;;;;;;4.86;100.00;101877.34;5027187;28;20962;-48
2022/12/27 12:06:58;;;;;;;29.93;28.10;;;;;;;4.84;100.00;101873.97;5020693;28;20889;-50
2022/12/27 12:09:41;;;;;;;28.80;27.23;;;;;;;4.86;100.00;101868.59;5022322;28;20472;-48
2022/12/27 12:12:45;;;;;;;28.77;27.20;;;;;;;4.83;100.00;101867.03;4992736;28;20470;-44
2022/12/27 12:15:30;;;;;;;30.63;27.97;;;;;;;4.89;100.00;101855.94;4993406;28;20532;-49
2022/12/27 12:18:22;;;;;;;28.60;27.20;;;;;;;5.00;100.00;101858.50;5006464;28;20429;-51
2022/12/27 12:21:23;;;;;;;29.63;27.57;;;;;;;5.07;100.00;101858.78;5000293;28;20469;-48
2022/12/27 12:24:27;;;;;;;30.40;28.37;;;;;;;5.16;100.00;101860.63;4997589;28;20426;-49
2022/12/27 12:27:09;;;;;;;29.90;28.30;;;;;;;5.34;100.00;101853.72;4989255;28;20474;-47
2022/12/27 12:30:00;;;;;;;29.43;28.13;;;;;;;5.44;100.00;101848.44;4996685;28;20519;-49
2022/12/27 12:32:35;;;;;;;31.80;29.23;;;;;;;5.58;100.00;101854.16;5009026;28;20768;-51
2022/12/27 12:35:20;;;;;;;29.67;28.00;;;;;;;5.74;100.00;101842.19;5018265;28;20466;-47
2022/12/27 12:38:10;;;;;;;30.80;28.93;;;;;;;5.76;100.00;101840.28;5016328;28;20420;-45
2022/12/27 12:41:08;;;;;;;31.57;29.37;;;;;;;5.76;100.00;101851.72;4991087;28;20477;-46
2022/12/27 12:44:20;;;;;;;31.67;29.07;;;;;;;5.83;100.00;101844.03;4988179;28;20434;-49
2022/12/27 12:46:55;;;;;;;32.67;30.77;;;;;;;5.79;100.00;101854.06;4988304;28;20476;-48
2022/12/27 12:49:42;;;;;;;31.37;29.23;;;;;;;5.72;100.00;101854.75;4994100;28;21257;-48
2022/12/27 12:52:30;;;;;;;31.00;28.90;;;;;;;5.68;100.00;101854.19;5007989;28;20445;-46
2022/12/27 12:55:20;;;;;;;31.93;29.60;;;;;;;5.66;100.00;101855.31;5010106;28;20849;-48
2022/12/27 12:58:04;;;;;;;31.50;29.40;;;;;;;5.56;100.00;101879.94;5026923;28;20438;-48
2022/12/27 13:00:47;;;;;;;29.03;27.00;;;;;;;5.52;100.00;101875.91;5020914;28;20818;-48
2022/12/27 13:03:45;;;;;;;33.37;30.07;;;;;;;5.48;100.00;101877.16;5008252;28;20444;-48
2022/12/27 13:06:23;;;;;;;31.23;28.67;;;;;;;5.43;100.00;101858.22;5013805;28;20531;-48
2022/12/27 13:08:58;;;;;;;31.00;28.13;;;;;;;5.48;100.00;101863.91;5017591;28;20989;-48
2022/12/27 13:11:45;;;;;;;31.40;28.80;;;;;;;5.42;100.00;101853.88;5020954;28;20479;-46